Adventure of The Seas — C6SA3 — position and weather

sailwx.info

Track history (hours):
 
Tides and Currents Weather Stations Pressure Air Temp Water Temp Dewpoint Dewpoint Depression Visibility Wind Speed Wind Dir Waves Ship Positions

Adventure of The Seas

Operator: Royal Caribbean Cruises Ltd

Last reported at 2014-Dec-18 10:33 UTC. Time now 2014-Dec-20 10:20 UTC.
Position N 17°02' W 061°59'.

MMSI: 311263000.

Date/timePositionNaut miles runAvg speedWind from/ knotsBaromVisibWave heightAir tempDewpointWater temp
2014-Dec-18 10:33N 17°02' W 061°59'1414.5
2014-Dec-18 09:34N 16°48' W 062°02'1414.1
2014-Dec-18 08:33N 16°35' W 062°04'1414.4
2014-Dec-18 07:34N 16°20' W 062°05'  
2014-Dec-15 07:14N 18°10' W 064°47'  
2014-Dec-09 07:12N 17°45' W 063°13'811.0
2014-Dec-09 06:26N 17°48' W 063°21'1011.1
2014-Dec-09 05:33N 17°52' W 063°31'1110.8
2014-Dec-09 04:33N 17°56' W 063°41'6710.9
2014-Dec-08 22:20N 18°12' W 064°50'  
Track history (hours):
 
Tides and Currents Weather Stations Pressure Air Temp Water Temp Dewpoint Dewpoint Depression Visibility Wind Speed Wind Dir Waves Ship Positions

Adventure of The Seas

Operator: Royal Caribbean Cruises Ltd

Last reported at 2014-Dec-18 10:33 UTC. Time now 2014-Dec-20 10:20 UTC.
Position N 17°02' W 061°59'.

MMSI: 311263000.

Date/timePositionNaut miles runAvg speedWind from/ knotsBaromVisibWave heightAir tempDewpointWater temp
2014-Dec-18 10:33N 17°02' W 061°59'1414.5
2014-Dec-18 09:34N 16°48' W 062°02'1414.1
2014-Dec-18 08:33N 16°35' W 062°04'1414.4
2014-Dec-18 07:34N 16°20' W 062°05'  
2014-Dec-15 07:14N 18°10' W 064°47'  
2014-Dec-09 07:12N 17°45' W 063°13'811.0
2014-Dec-09 06:26N 17°48' W 063°21'1011.1
2014-Dec-09 05:33N 17°52' W 063°31'1110.8
2014-Dec-09 04:33N 17°56' W 063°41'6710.9
2014-Dec-08 22:20N 18°12' W 064°50'  

Dump ship's entire track history